Time;durP1;ratioP1;P1;durP2;ratioP2;P2;SDS_P1;SDS_P2;PMS_P1;PMS_P2;Temp;Humidity;BMP_temperature;BMP_pressure;BME280_temperature;BME280_humidity;BME280_pressure;Samples;Min_cycle;Max_cycle;Signal;HPM_P1;HPM_P2
2021/10/08 00:01:09;;;;;;;10.27;7.45;;;16.30;99.90;;;;;;5023936;28;20050;-58
2021/10/08 00:03:36;;;;;;;9.23;7.30;;;16.30;99.90;;;;;;5022513;28;20080;-59
2021/10/08 00:06:03;;;;;;;8.50;7.28;;;16.30;99.90;;;;;;5023819;28;20133;-59
2021/10/08 00:08:30;;;;;;;10.95;7.68;;;16.30;99.80;;;;;;5022713;28;20045;-58
2021/10/08 00:10:57;;;;;;;11.45;8.15;;;16.30;99.90;;;;;;5023850;28;20141;-58
2021/10/08 00:13:23;;;;;;;10.88;7.72;;;16.30;99.80;;;;;;5022558;28;20132;-59
2021/10/08 00:15:50;;;;;;;10.02;7.40;;;16.40;99.90;;;;;;5023391;28;20130;-58
2021/10/08 00:18:17;;;;;;;11.43;7.90;;;16.40;99.90;;;;;;5022331;28;20124;-59
2021/10/08 00:20:44;;;;;;;13.93;8.55;;;16.30;99.80;;;;;;5023592;28;20049;-58
2021/10/08 00:23:10;;;;;;;13.13;7.88;;;16.30;99.80;;;;;;5022498;28;20084;-58
2021/10/08 00:25:39;;;;;;;13.50;8.10;;;16.30;99.80;;;;;;5022505;28;20095;-58
2021/10/08 00:28:06;;;;;;;10.02;7.75;;;16.30;99.80;;;;;;5022751;28;20071;-59
2021/10/08 00:30:33;;;;;;;11.15;7.47;;;16.30;99.80;;;;;;5023607;28;20060;-59
2021/10/08 00:33:00;;;;;;;13.77;9.38;;;16.30;99.80;;;;;;5021503;28;20073;-59
2021/10/08 00:35:27;;;;;;;12.02;8.55;;;16.30;99.90;;;;;;5022173;28;20496;-59
2021/10/08 00:37:54;;;;;;;10.18;7.43;;;16.30;99.90;;;;;;5022452;28;20135;-59
2021/10/08 00:40:21;;;;;;;16.20;8.85;;;16.30;99.80;;;;;;5022122;28;20059;-59
2021/10/08 00:42:48;;;;;;;10.90;7.78;;;16.30;99.70;;;;;;5021189;28;20053;-58
2021/10/08 00:45:15;;;;;;;11.63;8.05;;;16.30;99.70;;;;;;5022124;28;20114;-58
2021/10/08 00:47:42;;;;;;;9.73;7.53;;;16.30;99.70;;;;;;5019832;28;20129;-59
2021/10/08 00:50:09;;;;;;;10.43;7.38;;;16.30;99.60;;;;;;5021233;28;20084;-58
2021/10/08 00:52:36;;;;;;;9.52;7.20;;;16.30;99.60;;;;;;5023298;28;20085;-58
2021/10/08 00:55:04;;;;;;;10.80;7.82;;;16.30;99.70;;;;;;5022269;28;20824;-58
2021/10/08 00:57:31;;;;;;;7.72;6.47;;;16.40;99.70;;;;;;5022056;28;20092;-58
2021/10/08 00:59:57;;;;;;;9.60;6.55;;;16.40;99.70;;;;;;5020428;28;20128;-58
2021/10/08 01:02:24;;;;;;;9.40;6.45;;;16.40;99.60;;;;;;4996615;28;20085;-58
2021/10/08 01:04:56;;;;;;;10.23;6.65;;;16.40;99.70;;;;;;5022246;28;20552;-59
2021/10/08 01:07:23;;;;;;;8.38;6.25;;;16.40;99.70;;;;;;5021308;28;20124;-59
2021/10/08 01:09:50;;;;;;;9.93;7.10;;;16.40;99.60;;;;;;5023272;28;20049;-58
2021/10/08 01:12:17;;;;;;;9.18;6.85;;;16.40;99.60;;;;;;5021815;28;20046;-58
2021/10/08 01:14:44;;;;;;;9.60;6.40;;;16.40;99.60;;;;;;5021653;28;20054;-58
2021/10/08 01:17:15;;;;;;;8.05;5.90;;;16.40;99.70;;;;;;5020951;28;20099;-56
2021/10/08 01:19:42;;;;;;;9.35;6.32;;;16.40;99.60;;;;;;5021758;28;20315;-58
2021/10/08 01:22:09;;;;;;;9.45;6.68;;;16.40;99.60;;;;;;5020689;28;20076;-59
2021/10/08 01:24:35;;;;;;;7.85;6.15;;;16.30;99.50;;;;;;5022593;28;20160;-59
2021/10/08 01:27:06;;;;;;;9.13;5.72;;;16.30;99.60;;;;;;5021178;28;20057;-59
2021/10/08 01:29:33;;;;;;;7.43;5.55;;;16.30;99.70;;;;;;5021356;28;20099;-59
2021/10/08 01:32:00;;;;;;;6.53;5.60;;;16.30;99.70;;;;;;5021052;28;20045;-59
2021/10/08 01:34:27;;;;;;;6.07;4.90;;;16.30;99.70;;;;;;5022823;28;20088;-58
2021/10/08 01:36:53;;;;;;;8.85;5.35;;;16.30;99.60;;;;;;5006129;28;20203;-58
2021/10/08 01:39:20;;;;;;;6.80;5.57;;;16.40;99.70;;;;;;5024058;28;20065;-59
2021/10/08 01:41:47;;;;;;;8.73;5.60;;;16.40;99.70;;;;;;5024032;28;20575;-59
2021/10/08 01:44:14;;;;;;;7.85;5.65;;;16.30;99.60;;;;;;5023919;28;20161;-59
2021/10/08 01:46:40;;;;;;;9.43;5.85;;;16.40;99.60;;;;;;5023504;28;20068;-59
2021/10/08 01:49:07;;;;;;;8.30;6.03;;;16.30;99.70;;;;;;5023860;28;20085;-59
2021/10/08 01:51:34;;;;;;;7.45;6.05;;;16.40;99.70;;;;;;5024149;28;20626;-59
2021/10/08 01:54:01;;;;;;;7.78;5.68;;;16.40;99.70;;;;;;5024313;28;20107;-63
2021/10/08 01:56:28;;;;;;;7.97;6.07;;;16.40;99.70;;;;;;5023295;28;20268;-58
2021/10/08 01:58:54;;;;;;;8.57;6.00;;;16.40;99.70;;;;;;5022031;28;20136;-58
2021/10/08 02:01:21;;;;;;;8.13;5.53;;;16.40;99.70;;;;;;5028612;28;20124;-58
2021/10/08 02:03:48;;;;;;;6.75;5.28;;;16.40;99.80;;;;;;5029430;28;20538;-59
2021/10/08 02:06:15;;;;;;;6.38;4.88;;;16.40;99.80;;;;;;5029851;28;20577;-57
2021/10/08 02:08:43;;;;;;;9.52;5.32;;;16.40;99.90;;;;;;5030314;28;20480;-58
2021/10/08 02:11:09;;;;;;;5.28;4.15;;;16.40;99.90;;;;;;5029478;28;20816;-59
2021/10/08 02:13:36;;;;;;;6.28;4.28;;;16.40;99.90;;;;;;5015417;28;20139;-58
2021/10/08 02:16:03;;;;;;;5.93;4.18;;;16.40;99.90;;;;;;5029881;28;20088;-58
2021/10/08 02:18:30;;;;;;;8.38;4.68;;;16.40;99.90;;;;;;5029212;28;20540;-58
2021/10/08 02:20:57;;;;;;;6.80;4.53;;;16.40;99.90;;;;;;5029532;28;20045;-58
2021/10/08 02:23:23;;;;;;;5.82;4.00;;;16.40;99.90;;;;;;5030075;28;20053;-58
2021/10/08 02:25:50;;;;;;;7.65;4.68;;;16.40;99.90;;;;;;5045307;28;20132;-58
2021/10/08 02:28:17;;;;;;;6.57;4.63;;;16.40;99.90;;;;;;5028907;28;20507;-59
2021/10/08 02:30:44;;;;;;;6.53;3.95;;;16.40;99.90;;;;;;5028519;28;20081;-58
2021/10/08 02:33:11;;;;;;;7.80;3.80;;;16.40;99.80;;;;;;5027826;28;20461;-58
2021/10/08 02:35:37;;;;;;;6.90;4.47;;;16.30;99.90;;;;;;5029210;28;20124;-58
2021/10/08 02:38:04;;;;;;;5.80;4.32;;;16.20;99.90;;;;;;5028649;28;20133;-58
2021/10/08 02:40:32;;;;;;;5.65;3.60;;;16.20;99.90;;;;;;5029129;28;20076;-59
2021/10/08 02:42:58;;;;;;;5.00;3.55;;;16.20;99.90;;;;;;5029784;28;20485;-58
2021/10/08 02:45:25;;;;;;;5.20;3.78;;;16.10;99.90;;;;;;5026362;28;20084;-59
2021/10/08 02:47:52;;;;;;;7.00;3.95;;;16.10;99.90;;;;;;5026564;28;20049;-58
2021/10/08 02:50:19;;;;;;;6.30;3.75;;;16.10;99.90;;;;;;5029246;28;20119;-58
2021/10/08 02:52:46;;;;;;;5.25;2.92;;;16.10;99.90;;;;;;5028192;28;20385;-58
2021/10/08 02:55:12;;;;;;;6.30;3.08;;;16.10;99.90;;;;;;5029804;28;20485;-58
2021/10/08 02:57:39;;;;;;;4.72;3.08;;;16.10;99.90;;;;;;5029969;28;20045;-58
2021/10/08 03:00:07;;;;;;;6.68;2.88;;;16.10;99.90;;;;;;5029550;28;20054;-58
2021/10/08 03:02:33;;;;;;;4.95;3.05;;;16.10;99.80;;;;;;5029037;28;20485;-58
2021/10/08 03:05:00;;;;;;;9.48;3.20;;;16.00;99.90;;;;;;5030098;28;20092;-59
2021/10/08 03:07:27;;;;;;;5.68;2.60;;;16.00;99.90;;;;;;5030446;28;20046;-57
2021/10/08 03:09:54;;;;;;;5.47;2.90;;;16.00;99.90;;;;;;5029528;28;20477;-58
2021/10/08 03:12:20;;;;;;;6.85;3.10;;;16.00;99.90;;;;;;5026563;28;20099;-58
2021/10/08 03:14:47;;;;;;;7.25;3.30;;;15.90;99.90;;;;;;5025263;28;20106;-59
2021/10/08 03:17:14;;;;;;;4.63;2.88;;;15.90;99.90;;;;;;5026446;28;20057;-58
2021/10/08 03:19:41;;;;;;;6.20;2.92;;;15.90;99.90;;;;;;5026520;28;20104;-58
2021/10/08 03:22:08;;;;;;;8.13;3.08;;;15.90;99.90;;;;;;5025857;28;20111;-58
2021/10/08 03:24:35;;;;;;;6.55;2.80;;;15.90;99.90;;;;;;5026943;28;20119;-58
2021/10/08 03:27:02;;;;;;;5.82;3.05;;;15.90;99.90;;;;;;5026297;28;20144;-58
2021/10/08 03:29:29;;;;;;;4.70;2.75;;;15.90;99.90;;;;;;5026287;28;20125;-58
2021/10/08 03:31:55;;;;;;;3.40;2.33;;;15.90;99.90;;;;;;5026220;28;20136;-59
2021/10/08 03:34:22;;;;;;;4.72;2.72;;;15.90;99.90;;;;;;5026991;28;20088;-59
2021/10/08 03:36:54;;;;;;;6.25;2.58;;;15.90;99.90;;;;;;5026799;28;20231;-59
2021/10/08 03:39:24;;;;;;;4.13;2.30;;;15.90;99.90;;;;;;5026171;28;20053;-58
2021/10/08 03:41:52;;;;;;;5.07;2.80;;;15.90;99.90;;;;;;5026094;28;20137;-59
2021/10/08 03:44:23;;;;;;;6.20;2.58;;;15.90;99.90;;;;;;5026256;28;20358;-58
2021/10/08 03:46:51;;;;;;;5.60;2.65;;;15.90;99.80;;;;;;5026382;28;20085;-58
2021/10/08 03:49:24;;;;;;;4.63;2.90;;;15.90;99.90;;;;;;5024947;28;20042;-59
2021/10/08 03:51:51;;;;;;;6.22;2.78;;;15.90;99.90;;;;;;5026251;28;20085;-59
2021/10/08 03:54:20;;;;;;;5.80;2.65;;;16.00;99.90;;;;;;5025920;28;20045;-58
2021/10/08 03:56:47;;;;;;;5.70;2.58;;;16.00;99.90;;;;;;5025676;28;20131;-58
2021/10/08 03:59:14;;;;;;;3.10;1.98;;;16.00;99.90;;;;;;5024283;28;20114;-59
2021/10/08 04:01:43;;;;;;;4.57;2.20;;;16.00;99.90;;;;;;5025389;28;20050;-59
2021/10/08 04:04:10;;;;;;;4.05;2.35;;;16.00;99.90;;;;;;5024937;28;20081;-58
2021/10/08 04:06:37;;;;;;;5.35;2.22;;;16.00;99.90;;;;;;5025757;28;20794;-59
2021/10/08 04:09:04;;;;;;;3.58;1.90;;;16.00;99.70;;;;;;5026630;28;20503;-58
2021/10/08 04:11:31;;;;;;;5.68;1.88;;;16.00;99.70;;;;;;5027491;28;20088;-59
2021/10/08 04:13:58;;;;;;;5.70;2.55;;;15.90;99.70;;;;;;5027194;28;20049;-58
2021/10/08 04:16:25;;;;;;;3.22;2.42;;;15.90;99.80;;;;;;5027511;28;20053;-58
2021/10/08 04:18:51;;;;;;;4.15;2.10;;;15.90;99.80;;;;;;5026855;28;20092;-58
2021/10/08 04:21:18;;;;;;;5.90;1.85;;;15.90;99.80;;;;;;5027627;28;20130;-58
2021/10/08 04:23:45;;;;;;;4.28;2.08;;;15.90;99.70;;;;;;5027034;28;20507;-58
2021/10/08 04:26:12;;;;;;;3.08;1.70;;;15.90;99.80;;;;;;5027229;28;20104;-59
2021/10/08 04:28:38;;;;;;;4.55;2.00;;;15.90;99.70;;;;;;5026227;28;20517;-59
2021/10/08 04:31:05;;;;;;;3.22;2.05;;;16.00;99.80;;;;;;5027680;28;20093;-58
2021/10/08 04:33:34;;;;;;;5.95;3.55;;;15.90;99.80;;;;;;5025973;28;20120;-58
2021/10/08 04:36:01;;;;;;;4.85;3.03;;;15.90;99.80;;;;;;5027209;28;20480;-59
2021/10/08 04:38:28;;;;;;;4.88;2.55;;;15.90;99.90;;;;;;5027075;28;20084;-58
2021/10/08 04:40:55;;;;;;;5.35;2.38;;;15.90;99.80;;;;;;5026911;28;20057;-58
2021/10/08 04:43:22;;;;;;;5.45;2.10;;;15.90;99.90;;;;;;5026192;28;20081;-58
2021/10/08 04:45:48;;;;;;;6.40;2.20;;;15.80;99.90;;;;;;5025889;28;20129;-59
2021/10/08 04:48:15;;;;;;;2.30;1.60;;;15.80;99.90;;;;;;5025053;28;20456;-58
2021/10/08 04:50:42;;;;;;;4.45;2.03;;;15.80;99.90;;;;;;5024257;28;20065;-58
2021/10/08 04:53:17;;;;;;;5.45;1.92;;;15.80;99.90;;;;;;5022643;28;20128;-58
2021/10/08 04:55:44;;;;;;;6.10;2.33;;;15.70;99.90;;;;;;5022903;28;20049;-58
2021/10/08 04:58:10;;;;;;;6.90;1.95;;;15.80;99.90;;;;;;5020648;28;20143;-58
2021/10/08 05:00:37;;;;;;;4.40;1.70;;;15.70;99.90;;;;;;5020360;28;20076;-58
2021/10/08 05:03:09;;;;;;;2.80;2.00;;;15.70;99.90;;;;;;5021123;28;20172;-59
2021/10/08 05:05:36;;;;;;;5.75;2.63;;;15.70;99.90;;;;;;5018533;28;20055;-58
2021/10/08 05:08:03;;;;;;;5.22;2.08;;;15.70;99.90;;;;;;5020134;28;20080;-58
2021/10/08 05:10:30;;;;;;;4.00;2.42;;;15.70;99.90;;;;;;5021029;28;20516;-58
2021/10/08 05:12:58;;;;;;;4.15;2.28;;;15.70;99.90;;;;;;5021798;28;20133;-59
2021/10/08 05:15:24;;;;;;;6.60;2.75;;;15.70;99.90;;;;;;5027477;28;20452;-58
2021/10/08 05:17:51;;;;;;;3.42;2.17;;;15.70;99.90;;;;;;5020217;28;20124;-58
2021/10/08 05:20:18;;;;;;;5.95;2.40;;;15.70;99.90;;;;;;5021186;28;20049;-59
2021/10/08 05:22:45;;;;;;;3.22;2.40;;;15.70;99.90;;;;;;5020882;28;20496;-59
2021/10/08 05:25:12;;;;;;;3.42;2.30;;;15.70;99.90;;;;;;5020342;28;20132;-59
2021/10/08 05:27:38;;;;;;;6.43;2.95;;;15.70;99.90;;;;;;5020319;28;20240;-59
2021/10/08 05:30:06;;;;;;;4.72;2.50;;;15.70;99.90;;;;;;5020234;28;20073;-59
2021/10/08 05:32:33;;;;;;;4.82;2.50;;;15.70;99.90;;;;;;5020291;28;20103;-59
2021/10/08 05:34:59;;;;;;;4.82;2.58;;;15.70;99.90;;;;;;5019947;28;20183;-59
2021/10/08 05:37:26;;;;;;;3.75;2.20;;;15.70;99.90;;;;;;5020309;28;20235;-59
2021/10/08 05:39:53;;;;;;;4.18;2.25;;;15.70;99.90;;;;;;5020993;28;20128;-58
2021/10/08 05:42:19;;;;;;;5.38;2.42;;;15.70;99.90;;;;;;5021420;28;20501;-59
2021/10/08 05:44:46;;;;;;;5.10;2.80;;;15.70;99.90;;;;;;5021107;28;20057;-59
2021/10/08 05:47:13;;;;;;;9.13;2.35;;;15.70;99.90;;;;;;5021246;28;20155;-59
2021/10/08 05:49:40;;;;;;;3.75;2.72;;;15.70;99.90;;;;;;5021590;28;20538;-59
2021/10/08 05:52:06;;;;;;;6.43;2.40;;;15.70;99.90;;;;;;5020413;28;20120;-59
2021/10/08 05:54:33;;;;;;;4.25;2.50;;;15.70;99.90;;;;;;5022121;28;20470;-59
2021/10/08 05:57:00;;;;;;;5.47;2.55;;;15.70;99.90;;;;;;5020873;28;20143;-60
2021/10/08 05:59:27;;;;;;;5.78;2.90;;;15.70;99.90;;;;;;5021260;28;20046;-60
2021/10/08 06:01:53;;;;;;;4.15;2.58;;;15.70;99.90;;;;;;5020572;28;20132;-59
2021/10/08 06:04:20;;;;;;;5.20;2.42;;;15.70;99.90;;;;;;5021114;28;20053;-59
2021/10/08 06:06:47;;;;;;;3.78;2.38;;;15.70;99.90;;;;;;5021785;28;20053;-60
2021/10/08 06:09:13;;;;;;;18.95;5.55;;;15.70;99.90;;;;;;5021392;28;20470;-60
2021/10/08 06:11:40;;;;;;;6.15;3.60;;;15.70;99.90;;;;;;5021451;28;20144;-59
2021/10/08 06:14:07;;;;;;;6.38;2.80;;;15.70;99.90;;;;;;5020850;28;20543;-60
2021/10/08 06:16:34;;;;;;;4.82;3.58;;;15.70;99.90;;;;;;5020804;28;20085;-60
2021/10/08 06:19:01;;;;;;;6.00;3.65;;;15.70;99.90;;;;;;5021332;28;20054;-59
2021/10/08 06:21:27;;;;;;;5.82;3.20;;;15.70;99.90;;;;;;5021041;28;20049;-60
2021/10/08 06:23:54;;;;;;;7.80;3.40;;;15.70;99.90;;;;;;5021885;28;20174;-59
2021/10/08 06:26:21;;;;;;;5.85;2.85;;;15.70;99.90;;;;;;5020779;28;20496;-59
2021/10/08 06:28:47;;;;;;;8.50;3.33;;;15.70;99.90;;;;;;5020268;28;20136;-60
2021/10/08 06:31:14;;;;;;;5.75;3.22;;;15.70;99.90;;;;;;5021445;28;20062;-59
2021/10/08 06:33:41;;;;;;;6.20;3.33;;;15.70;99.90;;;;;;5019152;28;20065;-59
2021/10/08 06:36:08;;;;;;;5.90;3.80;;;15.70;99.90;;;;;;5021334;28;20089;-60
2021/10/08 06:38:36;;;;;;;5.70;4.05;;;15.60;99.90;;;;;;5021143;28;20073;-59
2021/10/08 06:41:03;;;;;;;5.95;3.95;;;15.60;99.90;;;;;;5021244;28;20073;-59
2021/10/08 06:43:29;;;;;;;10.23;4.70;;;15.50;99.90;;;;;;5020618;28;20686;-59
2021/10/08 06:45:56;;;;;;;8.60;4.28;;;15.50;99.90;;;;;;5021574;28;20057;-59
2021/10/08 06:48:26;;;;;;;8.43;4.13;;;15.50;99.90;;;;;;5023601;28;20176;-59
2021/10/08 06:50:53;;;;;;;6.60;4.35;;;15.50;99.90;;;;;;5024832;28;20072;-61
2021/10/08 06:53:20;;;;;;;7.53;4.20;;;15.50;99.90;;;;;;5024956;28;20128;-59
2021/10/08 06:55:47;;;;;;;9.02;4.45;;;15.50;99.90;;;;;;5024757;28;20733;-59
2021/10/08 06:58:13;;;;;;;8.50;4.68;;;15.50;99.90;;;;;;5038818;28;20053;-59
2021/10/08 07:00:40;;;;;;;9.35;4.85;;;15.50;99.90;;;;;;5024503;28;20089;-59
2021/10/08 07:03:07;;;;;;;11.55;4.85;;;15.50;99.90;;;;;;5023802;28;20049;-60
2021/10/08 07:05:34;;;;;;;9.20;5.43;;;15.50;99.90;;;;;;5024168;28;20505;-59
2021/10/08 07:08:01;;;;;;;9.48;5.75;;;15.50;99.90;;;;;;5024612;28;20053;-60
2021/10/08 07:10:29;;;;;;;11.25;5.97;;;15.50;99.90;;;;;;5023721;28;20049;-60
2021/10/08 07:12:55;;;;;;;9.57;6.97;;;15.50;99.90;;;;;;5024290;28;20177;-59
2021/10/08 07:15:22;;;;;;;12.10;7.30;;;15.50;99.90;;;;;;5023733;28;20081;-60
2021/10/08 07:17:51;;;;;;;9.27;6.43;;;15.50;99.90;;;;;;5022909;28;20092;-60
2021/10/08 07:20:21;;;;;;;8.65;4.60;;;15.60;99.90;;;;;;5024276;28;20080;-59
2021/10/08 07:22:48;;;;;;;14.88;6.03;;;15.60;99.90;;;;;;5024142;28;20156;-60
2021/10/08 07:25:15;;;;;;;8.90;5.70;;;15.60;99.90;;;;;;5006141;28;20563;-59
2021/10/08 07:27:43;;;;;;;9.73;5.97;;;15.70;99.90;;;;;;5021452;28;20255;-60
2021/10/08 07:30:10;;;;;;;9.45;5.40;;;15.70;99.90;;;;;;5019765;28;20132;-58
2021/10/08 07:32:37;;;;;;;11.60;6.20;;;15.70;99.90;;;;;;5019259;28;20130;-58
2021/10/08 07:35:05;;;;;;;7.75;5.45;;;15.70;99.90;;;;;;5023906;28;20054;-58
2021/10/08 07:37:32;;;;;;;8.10;5.50;;;15.80;99.90;;;;;;5020318;28;20571;-59
2021/10/08 07:39:58;;;;;;;12.15;5.65;;;15.90;99.90;;;;;;5018482;28;20064;-59
2021/10/08 07:42:26;;;;;;;11.27;6.63;;;15.90;99.90;;;;;;5021525;28;20053;-58
2021/10/08 07:44:53;;;;;;;9.77;5.40;;;15.90;99.90;;;;;;5002345;28;20137;-59
2021/10/08 07:47:20;;;;;;;8.13;4.07;;;16.00;99.90;;;;;;5022683;28;20104;-59
2021/10/08 07:49:47;;;;;;;6.47;4.72;;;16.10;99.90;;;;;;5022347;28;20081;-59
2021/10/08 07:52:14;;;;;;;7.40;4.57;;;16.10;99.70;;;;;;5023783;28;20073;-59
2021/10/08 07:54:41;;;;;;;10.07;5.43;;;16.20;99.50;;;;;;5023604;28;20485;-59
2021/10/08 07:57:08;;;;;;;7.80;5.25;;;16.20;99.40;;;;;;5023039;28;20156;-59
2021/10/08 07:59:34;;;;;;;8.20;4.93;;;16.20;99.60;;;;;;5020740;28;20136;-59
2021/10/08 08:02:01;;;;;;;8.15;4.88;;;16.30;99.50;;;;;;5021711;28;20092;-59
2021/10/08 08:04:28;;;;;;;9.68;7.00;;;16.40;99.50;;;;;;5023015;28;20662;-59
2021/10/08 08:06:55;;;;;;;8.80;5.75;;;16.40;99.40;;;;;;5023736;28;20550;-59
2021/10/08 08:09:22;;;;;;;7.40;5.18;;;16.50;99.30;;;;;;5021847;28;20187;-58
2021/10/08 08:11:48;;;;;;;6.40;4.95;;;16.50;99.00;;;;;;5023010;28;20099;-59
2021/10/08 08:14:15;;;;;;;7.43;5.55;;;16.60;98.80;;;;;;5022954;28;20728;-58
2021/10/08 08:16:42;;;;;;;8.45;5.55;;;16.60;98.80;;;;;;5021707;28;20095;-59
2021/10/08 08:19:10;;;;;;;7.93;5.10;;;16.70;98.40;;;;;;5022464;28;20103;-59
2021/10/08 08:21:36;;;;;;;7.28;5.30;;;16.80;98.60;;;;;;5023034;28;20092;-60
2021/10/08 08:24:03;;;;;;;8.35;5.15;;;16.80;98.60;;;;;;5019462;28;20129;-58
2021/10/08 08:26:30;;;;;;;9.40;5.38;;;16.90;98.50;;;;;;5017262;28;20589;-59
2021/10/08 08:28:57;;;;;;;7.45;5.00;;;16.90;98.40;;;;;;5020997;28;20045;-59
2021/10/08 08:31:24;;;;;;;7.20;5.43;;;17.00;98.20;;;;;;5020236;28;20049;-59
2021/10/08 08:33:51;;;;;;;7.20;4.95;;;17.00;98.00;;;;;;5017360;28;20073;-59
2021/10/08 08:36:18;;;;;;;7.20;4.82;;;17.10;98.00;;;;;;5021150;28;20129;-59
2021/10/08 08:38:44;;;;;;;7.90;4.80;;;17.20;98.00;;;;;;5020130;28;20159;-59
2021/10/08 08:41:12;;;;;;;6.20;3.83;;;17.30;97.50;;;;;;5017442;28;20081;-59
2021/10/08 08:43:58;;;;;;;7.50;4.57;;;17.30;97.30;;;;;;5019452;28;20073;-59
2021/10/08 08:46:24;;;;;;;6.30;4.22;;;17.40;97.30;;;;;;5021511;28;20487;-60
2021/10/08 08:48:51;;;;;;;9.18;4.82;;;17.40;97.10;;;;;;5019471;28;20138;-59
2021/10/08 08:51:18;;;;;;;6.25;4.40;;;17.40;96.90;;;;;;5018200;28;20084;-60
2021/10/08 08:53:45;;;;;;;9.13;5.22;;;17.50;96.70;;;;;;5019358;28;20073;-60
2021/10/08 08:56:12;;;;;;;9.75;4.90;;;17.50;96.70;;;;;;5020067;28;20100;-59
2021/10/08 08:58:39;;;;;;;7.55;4.95;;;17.40;96.50;;;;;;5020453;28;20073;-60
2021/10/08 09:01:06;;;;;;;8.23;5.10;;;17.50;96.50;;;;;;5019399;28;20045;-59
2021/10/08 09:03:33;;;;;;;9.65;4.95;;;17.50;96.50;;;;;;5023121;28;20049;-59
2021/10/08 09:05:59;;;;;;;6.28;4.10;;;17.60;96.50;;;;;;5024207;28;20485;-59
2021/10/08 09:08:33;;;;;;;6.00;4.47;;;17.60;96.30;;;;;;5019811;28;20143;-59
2021/10/08 09:11:02;;;;;;;6.93;4.28;;;17.60;96.00;;;;;;5017604;28;20156;-59
2021/10/08 09:13:29;;;;;;;6.10;4.30;;;17.60;96.30;;;;;;5018123;28;20057;-60
2021/10/08 09:15:57;;;;;;;6.85;4.38;;;17.70;96.10;;;;;;5018274;28;20060;-60
2021/10/08 09:18:29;;;;;;;6.25;3.90;;;17.70;96.10;;;;;;5018594;28;20401;-59
2021/10/08 09:21:13;;;;;;;5.38;3.90;;;17.70;95.70;;;;;;5017564;28;20049;-59
2021/10/08 09:23:48;;;;;;;6.97;4.00;;;17.80;95.20;;;;;;5019009;28;20144;-59
2021/10/08 09:26:21;;;;;;;6.20;4.00;;;17.70;95.60;;;;;;5018206;28;20164;-59
2021/10/08 09:28:58;;;;;;;8.82;4.22;;;17.80;95.60;;;;;;5018610;28;20045;-60
2021/10/08 09:31:38;;;;;;;6.78;3.80;;;17.80;95.50;;;;;;5017071;28;20046;-59
2021/10/08 09:34:21;;;;;;;9.02;3.53;;;17.90;95.50;;;;;;5018167;28;20060;-60
2021/10/08 09:36:55;;;;;;;5.82;4.20;;;17.90;95.10;;;;;;5018166;28;20049;-60
2021/10/08 09:39:27;;;;;;;6.97;4.40;;;17.90;95.50;;;;;;5016961;28;20128;-60
2021/10/08 09:41:58;;;;;;;8.10;4.25;;;18.00;95.90;;;;;;5013931;28;20369;-60
2021/10/08 09:44:26;;;;;;;5.68;3.75;;;18.10;95.90;;;;;;5015017;28;20431;-60
2021/10/08 09:47:07;;;;;;;6.22;3.78;;;18.10;95.70;;;;;;5016019;28;20500;-60
2021/10/08 09:49:34;;;;;;;6.80;4.10;;;18.10;95.00;;;;;;5028230;28;20049;-60
2021/10/08 09:52:19;;;;;;;6.53;4.50;;;18.20;95.20;;;;;;5016877;28;20282;-60
2021/10/08 09:54:49;;;;;;;7.78;4.20;;;18.30;94.10;;;;;;5017849;28;20122;-60
2021/10/08 09:57:16;;;;;;;6.50;3.70;;;18.40;94.70;;;;;;5017164;28;20108;-60
2021/10/08 09:59:43;;;;;;;5.20;3.80;;;18.60;95.20;;;;;;5016703;28;20129;-60
2021/10/08 10:02:10;;;;;;;4.93;3.33;;;18.60;94.90;;;;;;5017089;28;20196;-60
2021/10/08 10:04:55;;;;;;;6.05;4.15;;;18.70;94.80;;;;;;5016203;28;20045;-60
2021/10/08 10:07:31;;;;;;;6.63;4.20;;;18.90;94.00;;;;;;5016406;28;20046;-60
2021/10/08 10:09:59;;;;;;;6.78;4.30;;;19.10;94.50;;;;;;5017042;28;20103;-60
2021/10/08 10:12:35;;;;;;;7.90;3.95;;;19.20;94.20;;;;;;5017931;28;20053;-60
2021/10/08 10:15:01;;;;;;;6.53;3.03;;;19.40;94.10;;;;;;5017556;28;20570;-58
2021/10/08 10:17:30;;;;;;;5.40;3.35;;;19.50;93.70;;;;;;5015072;28;20536;-60
2021/10/08 10:19:58;;;;;;;3.55;2.45;;;19.50;93.50;;;;;;5008617;28;20053;-60
2021/10/08 10:22:25;;;;;;;3.95;2.83;;;19.60;93.30;;;;;;5029731;28;20292;-60
2021/10/08 10:24:52;;;;;;;3.55;2.45;;;19.70;92.80;;;;;;5028114;28;20049;-60
2021/10/08 10:27:19;;;;;;;4.45;2.03;;;19.60;92.70;;;;;;5004097;28;20080;-60
2021/10/08 10:29:46;;;;;;;5.18;1.92;;;19.50;93.00;;;;;;5021636;28;20493;-60
2021/10/08 10:32:13;;;;;;;2.47;2.05;;;19.50;92.80;;;;;;5003393;28;20453;-60
2021/10/08 10:34:40;;;;;;;3.15;1.73;;;19.60;92.90;;;;;;5019473;28;20126;-60
2021/10/08 10:37:07;;;;;;;2.90;1.80;;;19.70;92.30;;;;;;5019654;28;20142;-60
2021/10/08 10:39:35;;;;;;;2.17;1.30;;;19.60;92.10;;;;;;5019901;28;20555;-60
2021/10/08 10:42:04;;;;;;;3.30;1.42;;;19.50;92.40;;;;;;5027315;28;20057;-60
2021/10/08 10:44:38;;;;;;;2.72;1.40;;;19.50;92.30;;;;;;5021047;28;20049;-60
2021/10/08 10:47:17;;;;;;;2.67;1.40;;;19.60;92.50;;;;;;5021467;28;20049;-60
2021/10/08 10:52:12;;;;;;;3.65;2.15;;;19.80;92.60;;;;;;5031113;28;20060;-60
2021/10/08 10:54:51;;;;;;;3.00;1.73;;;19.80;92.20;;;;;;5019825;28;20955;-60
2021/10/08 10:57:18;;;;;;;4.28;1.92;;;19.80;92.20;;;;;;5019182;28;20081;-60
2021/10/08 10:59:45;;;;;;;4.85;2.00;;;19.80;92.10;;;;;;5021169;28;20454;-60
2021/10/08 11:02:15;;;;;;;4.53;2.67;;;19.90;91.90;;;;;;5020849;28;20130;-59
2021/10/08 11:04:46;;;;;;;4.07;2.20;;;20.00;91.80;;;;;;5020141;28;20050;-59
2021/10/08 11:07:18;;;;;;;3.17;1.98;;;19.90;91.60;;;;;;5022277;28;20053;-59
2021/10/08 11:10:05;;;;;;;4.97;1.92;;;19.90;91.70;;;;;;5021106;28;20045;-59
2021/10/08 11:12:41;;;;;;;2.65;1.40;;;20.00;91.60;;;;;;5022036;28;20084;-59
2021/10/08 11:15:23;;;;;;;3.63;1.60;;;20.00;91.60;;;;;;5021321;28;20497;-59
2021/10/08 11:17:56;;;;;;;3.22;1.88;;;20.10;91.10;;;;;;5021829;28;20473;-58
2021/10/08 11:20:33;;;;;;;3.30;1.33;;;20.20;91.00;;;;;;5018410;28;20045;-59
2021/10/08 11:23:21;;;;;;;1.50;0.90;;;20.30;90.90;;;;;;5020522;28;20144;-59
2021/10/08 11:25:53;;;;;;;2.83;1.25;;;20.40;90.90;;;;;;5020757;28;20081;-60
2021/10/08 11:28:34;;;;;;;2.33;0.63;;;20.50;90.00;;;;;;5021327;28;20136;-59
2021/10/08 11:31:01;;;;;;;1.65;1.00;;;20.40;90.40;;;;;;5021038;28;20466;-59
2021/10/08 11:33:42;;;;;;;2.13;1.00;;;20.20;90.80;;;;;;5020524;28;20152;-60
2021/10/08 11:36:14;;;;;;;2.17;1.00;;;20.20;90.30;;;;;;5021736;28;20153;-59
2021/10/08 11:38:41;;;;;;;1.65;0.90;;;20.20;90.70;;;;;;5021835;28;20053;-59
2021/10/08 11:41:25;;;;;;;4.65;1.85;;;20.10;91.10;;;;;;5020510;28;20365;-59
2021/10/08 11:44:24;;;;;;;3.08;1.20;;;20.10;90.70;;;;;;5019169;28;20504;-59
2021/10/08 11:47:09;;;;;;;3.38;1.48;;;20.10;91.10;;;;;;5020684;28;20565;-59
2021/10/08 11:52:03;;;;;;;1.48;1.15;;;20.10;91.20;;;;;;5020733;28;20072;-59
2021/10/08 11:54:30;;;;;;;1.27;1.00;;;20.00;91.10;;;;;;5020498;28;20161;-59
2021/10/08 11:57:10;;;;;;;2.63;1.20;;;20.10;90.90;;;;;;5018346;28;20146;-59
2021/10/08 11:59:39;;;;;;;1.67;1.20;;;20.10;90.70;;;;;;5020209;28;20077;-59
2021/10/08 12:02:24;;;;;;;1.55;1.23;;;20.10;90.60;;;;;;5020525;28;20129;-60
2021/10/08 12:05:01;;;;;;;2.42;1.38;;;20.10;90.60;;;;;;5019876;28;20455;-59
2021/10/08 12:07:38;;;;;;;2.97;1.10;;;20.10;90.60;;;;;;5012113;28;20085;-59
2021/10/08 12:10:12;;;;;;;1.63;1.00;;;20.00;90.90;;;;;;5019235;28;20060;-60
2021/10/08 12:12:55;;;;;;;1.00;0.85;;;20.00;90.30;;;;;;5019811;28;20513;-60
2021/10/08 12:15:25;;;;;;;1.33;0.80;;;20.00;90.80;;;;;;5018334;28;20089;-60
2021/10/08 12:17:54;;;;;;;1.75;1.00;;;19.90;90.70;;;;;;5017307;28;20296;-60
2021/10/08 12:20:25;;;;;;;1.95;0.90;;;19.90;90.90;;;;;;5020443;28;20156;-60
2021/10/08 12:23:23;;;;;;;9.27;7.72;;;19.80;91.30;;;;;;5021073;28;20078;-60
2021/10/08 12:25:53;;;;;;;6.43;5.72;;;19.70;91.20;;;;;;5020250;28;20088;-60
2021/10/08 12:28:22;;;;;;;4.90;4.35;;;19.50;91.60;;;;;;5010619;28;20377;-60
2021/10/08 12:30:55;;;;;;;3.05;2.25;;;19.30;92.20;;;;;;5019978;28;20124;-60
2021/10/08 12:33:27;;;;;;;3.70;3.03;;;19.10;92.90;;;;;;5021244;28;20147;-60
2021/10/08 12:36:22;;;;;;;3.88;2.13;;;18.90;93.40;;;;;;5017164;28;20049;-60
2021/10/08 12:38:56;;;;;;;2.25;1.15;;;18.80;94.00;;;;;;5026991;28;20089;-59
2021/10/08 12:41:34;;;;;;;2.88;1.25;;;18.70;94.00;;;;;;5017361;28;20111;-60
2021/10/08 12:44:30;;;;;;;1.30;1.15;;;18.70;94.40;;;;;;5019948;28;20049;-60
2021/10/08 12:47:13;;;;;;;2.38;1.05;;;18.60;94.60;;;;;;5019237;28;20123;-59
2021/10/08 12:49:48;;;;;;;3.40;1.30;;;18.60;94.30;;;;;;5019327;28;20060;-60
2021/10/08 12:52:16;;;;;;;3.17;1.15;;;18.60;94.30;;;;;;5019047;28;20539;-60
2021/10/08 12:55:01;;;;;;;2.22;1.30;;;18.50;94.20;;;;;;5019212;28;20476;-60
2021/10/08 12:57:28;;;;;;;1.38;1.23;;;18.60;94.20;;;;;;5000557;28;20104;-60
2021/10/08 12:59:55;;;;;;;1.90;1.50;;;18.60;94.30;;;;;;5034108;28;20076;-60